Time;durP1;ratioP1;P1;durP2;ratioP2;P2;SDS_P1;SDS_P2;PMS_P1;PMS_P2;Temp;Humidity;BMP_temperature;BMP_pressure;BME280_temperature;BME280_humidity;BME280_pressure;Samples;Min_cycle;Max_cycle;Signal;HPM_P1;HPM_P2
2023/05/06 00:00:18;;;;;;;36.42;31.65;;;10.80;99.90;;;;;;4995098;28;20042;-82
2023/05/06 00:02:44;;;;;;;32.08;26.30;;;10.70;99.90;;;;;;4978330;28;20577;-83
2023/05/06 00:05:10;;;;;;;30.58;24.30;;;11.70;99.90;;;;;;4994811;28;20070;-83
2023/05/06 00:07:38;;;;;;;23.63;18.35;;;10.50;99.90;;;;;;4978066;28;20057;-83
2023/05/06 00:10:05;;;;;;;20.38;14.48;;;10.50;99.90;;;;;;4977821;28;20065;-82
2023/05/06 00:12:30;;;;;;;20.83;14.00;;;10.40;99.90;;;;;;4994730;28;20051;-83
2023/05/06 00:14:56;;;;;;;19.42;13.52;;;10.40;99.90;;;;;;4977799;28;20141;-83
2023/05/06 00:17:21;;;;;;;17.55;11.88;;;10.30;99.90;;;;;;4995557;28;20046;-83
2023/05/06 00:19:47;;;;;;;19.75;12.32;;;11.10;99.90;;;;;;4994831;28;20043;-83
2023/05/06 00:22:12;;;;;;;18.08;12.07;;;10.20;99.90;;;;;;4977479;28;20057;-83
2023/05/06 00:24:38;;;;;;;17.85;11.43;;;10.10;99.90;;;;;;4995685;28;20042;-82
2023/05/06 00:27:04;;;;;;;17.38;11.27;;;10.10;99.90;;;;;;4976986;28;20053;-83
2023/05/06 00:29:29;;;;;;;17.70;10.35;;;10.10;99.90;;;;;;4977515;28;20070;-82
2023/05/06 00:31:55;;;;;;;17.02;10.57;;;10.00;99.90;;;;;;4977783;28;20057;-83
2023/05/06 00:34:20;;;;;;;16.20;9.88;;;11.00;99.90;;;;;;4994157;28;20398;-83
2023/05/06 00:36:46;;;;;;;18.63;10.10;;;10.60;99.90;;;;;;4995239;28;20046;-83
2023/05/06 00:39:12;;;;;;;17.88;9.55;;;10.00;99.90;;;;;;4977625;28;20394;-83
2023/05/06 00:41:37;;;;;;;16.50;10.10;;;10.00;99.90;;;;;;4994229;28;20046;-83
2023/05/06 00:44:03;;;;;;;16.95;9.60;;;9.90;99.90;;;;;;4977725;28;20097;-83
2023/05/06 00:46:29;;;;;;;14.85;8.77;;;10.40;99.90;;;;;;4976819;28;20045;-83
2023/05/06 00:48:57;;;;;;;16.05;9.05;;;9.90;99.90;;;;;;4976927;28;20486;-83
2023/05/06 00:51:24;;;;;;;14.93;8.90;;;9.80;99.90;;;;;;4994543;28;20101;-83
2023/05/06 00:53:50;;;;;;;14.60;8.82;;;10.60;99.90;;;;;;4976565;28;20054;-82
2023/05/06 00:56:18;;;;;;;14.98;8.98;;;9.60;99.90;;;;;;4976792;28;20502;-83
2023/05/06 00:58:44;;;;;;;15.73;8.95;;;9.60;99.90;;;;;;4994458;28;20042;-83
2023/05/06 01:01:11;;;;;;;15.52;9.18;;;9.60;99.90;;;;;;4993650;28;20041;-82
2023/05/06 01:03:37;;;;;;;16.00;9.00;;;9.50;99.90;;;;;;4976969;28;20098;-83
2023/05/06 01:09:06;;;;;;;16.40;9.45;;;9.40;99.90;;;;;;4992968;28;20502;-83
2023/05/06 01:11:56;;;;;;;15.85;9.35;;;9.30;99.90;;;;;;4983329;28;20039;-82
2023/05/06 01:14:51;;;;;;;16.13;9.27;;;9.20;99.90;;;;;;4977095;28;20512;-83
2023/05/06 01:17:18;;;;;;;17.83;10.45;;;9.30;99.90;;;;;;4999623;28;20058;-83
2023/05/06 01:19:52;;;;;;;16.20;9.35;;;9.20;99.90;;;;;;4991501;28;20100;-83
2023/05/06 01:22:18;;;;;;;;;;;9.10;99.90;;;;;;5013601;28;20046;-83
2023/05/06 01:24:45;;;;;;;18.52;10.00;;;9.20;99.90;;;;;;4996308;28;19921;-83
2023/05/06 01:27:12;;;;;;;17.52;9.48;;;9.10;99.90;;;;;;5013774;28;20057;-82
2023/05/06 01:29:40;;;;;;;16.98;9.73;;;9.00;99.90;;;;;;5012989;28;20053;-83
2023/05/06 01:32:18;;;;;;;18.30;10.48;;;9.00;99.90;;;;;;4981342;28;20050;-82
2023/05/06 01:35:09;;;;;;;17.80;10.10;;;9.00;99.90;;;;;;4976719;28;20053;-82
2023/05/06 01:37:57;;;;;;;18.42;10.40;;;9.10;99.90;;;;;;4993428;28;20560;-83
2023/05/06 01:40:27;;;;;;;19.00;11.10;;;9.10;99.90;;;;;;4976073;28;20050;-83
2023/05/06 01:42:53;;;;;;;18.58;11.10;;;9.10;99.90;;;;;;4976575;28;20057;-83
2023/05/06 01:45:20;;;;;;;17.70;10.55;;;9.20;99.90;;;;;;4993222;28;20049;-82
2023/05/06 01:47:46;;;;;;;21.75;12.52;;;9.20;99.90;;;;;;4976544;28;20390;-82
2023/05/06 01:50:12;;;;;;;20.40;12.73;;;10.40;99.90;;;;;;4975214;28;20038;-82
2023/05/06 01:52:38;;;;;;;20.58;11.35;;;9.30;99.90;;;;;;4976326;28;20389;-82
2023/05/06 01:55:04;;;;;;;20.65;12.00;;;9.30;99.90;;;;;;4993669;28;20572;-83
2023/05/06 01:57:29;;;;;;;21.10;14.43;;;9.30;99.90;;;;;;4975122;28;20445;-83
2023/05/06 01:59:55;;;;;;;23.75;15.05;;;9.40;99.90;;;;;;4976207;28;20046;-82
2023/05/06 02:02:21;;;;;;;20.75;13.73;;;10.40;99.90;;;;;;4975377;28;20053;-83
2023/05/06 02:04:46;;;;;;;21.63;12.65;;;10.20;99.90;;;;;;4992240;28;20129;-83
2023/05/06 02:07:12;;;;;;;21.42;13.93;;;9.40;99.90;;;;;;4975497;28;20061;-83
2023/05/06 02:09:37;;;;;;;21.20;13.07;;;9.40;99.90;;;;;;4993449;28;20073;-83
2023/05/06 02:12:03;;;;;;;22.17;13.75;;;9.40;99.90;;;;;;4975575;28;20050;-83
2023/05/06 02:14:29;;;;;;;21.45;13.25;;;9.30;99.90;;;;;;5047146;23;20057;-83
2023/05/06 02:16:55;;;;;;;21.95;13.45;;;9.30;99.90;;;;;;4975774;28;20093;-83
2023/05/06 02:19:20;;;;;;;21.15;13.05;;;9.20;99.90;;;;;;4992784;28;20046;-83
2023/05/06 02:21:46;;;;;;;19.20;12.38;;;9.10;99.90;;;;;;4975779;28;20555;-82
2023/05/06 02:24:11;;;;;;;21.42;14.30;;;9.10;99.90;;;;;;4975577;28;20054;-82
2023/05/06 02:26:37;;;;;;;20.92;13.48;;;9.00;99.90;;;;;;4975144;28;20402;-83
2023/05/06 02:29:02;;;;;;;22.25;14.70;;;9.00;99.90;;;;;;4976034;28;20046;-83
2023/05/06 02:31:28;;;;;;;23.92;14.23;;;8.90;99.90;;;;;;4993167;28;20490;-83
2023/05/06 02:33:54;;;;;;;24.33;14.30;;;8.80;99.90;;;;;;4974741;28;20038;-83
2023/05/06 02:36:19;;;;;;;25.48;15.38;;;8.80;99.90;;;;;;4992808;28;20039;-83
2023/05/06 02:38:45;;;;;;;24.75;15.77;;;8.70;99.90;;;;;;4993785;28;20065;-82
2023/05/06 02:41:10;;;;;;;23.38;15.07;;;10.10;99.90;;;;;;4996783;28;20094;-83
2023/05/06 02:43:36;;;;;;;23.65;15.10;;;9.70;99.90;;;;;;4976583;28;20482;-82
2023/05/06 02:46:02;;;;;;;22.83;13.80;;;8.60;99.90;;;;;;4993416;28;20046;-81
2023/05/06 02:48:28;;;;;;;23.85;15.30;;;8.60;99.90;;;;;;4981490;28;20061;-82
2023/05/06 02:50:53;;;;;;;23.92;14.82;;;8.50;99.90;;;;;;4975764;28;20796;-83
2023/05/06 02:53:19;;;;;;;23.92;15.68;;;8.50;99.90;;;;;;4974692;28;20054;-82
2023/05/06 02:55:44;;;;;;;24.30;15.85;;;8.50;99.90;;;;;;4992930;28;20042;-82
2023/05/06 02:58:10;;;;;;;26.02;15.50;;;8.50;99.90;;;;;;4992928;28;20074;-82
2023/05/06 03:00:35;;;;;;;26.20;16.33;;;8.50;99.90;;;;;;4974936;28;20168;-82
2023/05/06 03:03:01;;;;;;;26.20;16.95;;;8.50;99.90;;;;;;4975767;28;20046;-82
2023/05/06 03:05:27;;;;;;;28.77;17.83;;;8.50;99.90;;;;;;4992851;28;20050;-82
2023/05/06 03:07:52;;;;;;;26.88;17.85;;;8.50;99.90;;;;;;4974695;28;20401;-82
2023/05/06 03:10:18;;;;;;;25.85;16.27;;;8.40;99.90;;;;;;4975415;28;20050;-82
2023/05/06 03:12:43;;;;;;;25.13;16.83;;;8.40;99.90;;;;;;4975640;28;20142;-82
2023/05/06 03:15:10;;;;;;;24.83;15.95;;;8.30;99.90;;;;;;4974107;28;20058;-82
2023/05/06 03:17:36;;;;;;;28.35;17.23;;;8.30;99.90;;;;;;4992548;28;20054;-82
2023/05/06 03:20:02;;;;;;;26.70;16.60;;;8.30;99.90;;;;;;4992958;28;20053;-83
2023/05/06 03:22:28;;;;;;;25.77;16.85;;;8.20;99.90;;;;;;4991738;28;20568;-82
2023/05/06 03:24:53;;;;;;;26.08;17.05;;;8.20;99.90;;;;;;4975094;28;20045;-82
2023/05/06 03:27:19;;;;;;;26.17;16.35;;;8.20;99.90;;;;;;4992483;28;20077;-83
2023/05/06 03:29:45;;;;;;;23.73;15.77;;;9.20;99.90;;;;;;4991367;28;20409;-82
2023/05/06 03:32:10;;;;;;;26.27;16.40;;;8.20;99.90;;;;;;4992010;28;20042;-82
2023/05/06 03:34:36;;;;;;;26.13;14.90;;;8.10;99.90;;;;;;4992584;28;20486;-82
2023/05/06 03:37:01;;;;;;;25.73;16.08;;;8.10;99.90;;;;;;4974363;28;20071;-82
2023/05/06 03:39:27;;;;;;;25.30;15.63;;;8.10;99.90;;;;;;4975093;28;20073;-82
2023/05/06 03:41:53;;;;;;;24.60;14.90;;;8.00;99.90;;;;;;4975215;28;20491;-83
2023/05/06 03:44:18;;;;;;;24.02;14.23;;;8.00;99.90;;;;;;4974071;28;20133;-82
2023/05/06 03:46:44;;;;;;;24.45;14.70;;;8.00;99.90;;;;;;4977333;28;20053;-83
2023/05/06 03:49:09;;;;;;;22.90;14.98;;;8.00;99.90;;;;;;4995721;28;20117;-82
2023/05/06 03:51:35;;;;;;;24.80;15.00;;;8.00;99.90;;;;;;4977748;28;20053;-82
2023/05/06 03:54:02;;;;;;;25.48;15.15;;;7.90;99.90;;;;;;4978359;28;20077;-83
2023/05/06 03:56:27;;;;;;;22.80;14.85;;;7.90;99.90;;;;;;4995689;28;20553;-83
2023/05/06 03:58:53;;;;;;;22.02;13.52;;;7.90;99.90;;;;;;4995022;28;20134;-82
2023/05/06 04:01:19;;;;;;;22.10;13.82;;;7.90;99.90;;;;;;4995280;28;20049;-82
2023/05/06 04:03:45;;;;;;;23.02;14.90;;;7.90;99.90;;;;;;4994635;28;20089;-82
2023/05/06 04:06:11;;;;;;;22.33;13.52;;;7.90;99.90;;;;;;4976938;28;20046;-82
2023/05/06 04:08:37;;;;;;;23.88;14.23;;;7.80;99.90;;;;;;4979978;28;20054;-82
2023/05/06 04:11:06;;;;;;;23.08;14.05;;;7.90;99.90;;;;;;5000778;28;20410;-82
2023/05/06 04:13:35;;;;;;;25.70;14.65;;;7.80;99.90;;;;;;4978328;28;20105;-82
2023/05/06 04:16:01;;;;;;;22.92;15.07;;;7.80;99.90;;;;;;4989784;28;20104;-82
2023/05/06 04:18:27;;;;;;;26.05;15.13;;;7.80;99.90;;;;;;5004463;28;20049;-83
2023/05/06 04:20:53;;;;;;;24.48;15.13;;;7.80;99.90;;;;;;4995788;28;20054;-83
2023/05/06 04:23:19;;;;;;;22.27;14.10;;;8.60;99.90;;;;;;4977963;28;20124;-82
2023/05/06 04:25:47;;;;;;;25.60;16.50;;;7.90;99.90;;;;;;4977112;28;20153;-83
2023/05/06 04:28:15;;;;;;;26.80;16.40;;;7.90;99.90;;;;;;4977234;28;20054;-83
2023/05/06 04:30:42;;;;;;;26.30;16.20;;;8.90;99.90;;;;;;4978078;28;20073;-82
2023/05/06 04:33:07;;;;;;;25.88;15.77;;;8.00;99.90;;;;;;4976912;28;20073;-82
2023/05/06 04:35:33;;;;;;;27.05;15.45;;;8.10;99.90;;;;;;4977959;28;20038;-82
2023/05/06 04:37:59;;;;;;;26.83;16.23;;;8.10;99.90;;;;;;4995261;28;20050;-83
2023/05/06 04:40:26;;;;;;;25.98;16.10;;;8.10;99.90;;;;;;4976746;28;20076;-82
2023/05/06 04:42:52;;;;;;;25.98;16.10;;;8.20;99.90;;;;;;4994919;28;20532;-82
2023/05/06 04:45:18;;;;;;;28.08;16.25;;;8.70;99.90;;;;;;4976971;28;20387;-82
2023/05/06 04:47:44;;;;;;;33.90;17.60;;;8.80;99.90;;;;;;4994198;28;20049;-82
2023/05/06 04:50:10;;;;;;;37.72;17.52;;;8.40;99.90;;;;;;4994562;28;20046;-83
2023/05/06 04:52:36;;;;;;;35.08;18.60;;;8.40;99.90;;;;;;4994637;28;20054;-82
2023/05/06 04:55:02;;;;;;;44.08;19.17;;;8.50;99.90;;;;;;4976778;28;20046;-83
2023/05/06 04:57:28;;;;;;;108.60;24.63;;;8.60;99.90;;;;;;4993626;28;20071;-83
2023/05/06 04:59:54;;;;;;;83.53;20.02;;;8.80;99.90;;;;;;4994371;28;20074;-82
2023/05/06 05:02:19;;;;;;;91.82;21.60;;;8.90;99.90;;;;;;4976529;28;20081;-82
2023/05/06 05:04:45;;;;;;;74.55;21.38;;;8.90;99.90;;;;;;4977375;28;20134;-82
2023/05/06 05:07:11;;;;;;;101.20;22.30;;;9.00;99.90;;;;;;4993660;28;20449;-82
2023/05/06 05:09:37;;;;;;;63.78;20.73;;;9.10;99.90;;;;;;4977359;28;20125;-83
2023/05/06 05:12:03;;;;;;;53.97;20.98;;;9.10;99.90;;;;;;4994640;28;20042;-82
2023/05/06 05:14:29;;;;;;;46.75;19.50;;;9.20;99.90;;;;;;4975439;28;20066;-82
2023/05/06 05:16:54;;;;;;;66.20;21.00;;;9.30;99.90;;;;;;4994405;28;20042;-82
2023/05/06 05:19:20;;;;;;;52.00;21.42;;;9.30;99.90;;;;;;4994413;28;20122;-82
2023/05/06 05:21:47;;;;;;;43.42;18.85;;;9.40;99.90;;;;;;4976114;28;20057;-82
2023/05/06 05:24:12;;;;;;;32.15;18.30;;;9.40;99.90;;;;;;4976509;28;20038;-82
2023/05/06 05:26:38;;;;;;;43.70;19.50;;;9.50;99.90;;;;;;4976889;28;20410;-82
2023/05/06 05:29:04;;;;;;;43.72;19.52;;;9.60;99.90;;;;;;4976153;28;20045;-82
2023/05/06 05:31:30;;;;;;;40.83;18.13;;;10.00;99.90;;;;;;4994051;28;20046;-82
2023/05/06 05:33:56;;;;;;;30.67;17.30;;;9.70;99.90;;;;;;4976449;28;20054;-82
2023/05/06 05:36:22;;;;;;;29.05;17.13;;;9.80;99.90;;;;;;4975823;28;20418;-82
2023/05/06 05:38:48;;;;;;;27.58;15.85;;;9.80;99.90;;;;;;4980854;28;20042;-82
2023/05/06 05:41:14;;;;;;;46.47;18.55;;;9.80;99.90;;;;;;4977724;28;20050;-82
2023/05/06 05:43:40;;;;;;;34.95;17.65;;;9.90;99.90;;;;;;4976079;28;20050;-82
2023/05/06 05:46:06;;;;;;;36.15;16.63;;;9.90;99.90;;;;;;4999026;28;20078;-82
2023/05/06 05:48:32;;;;;;;34.10;16.08;;;11.00;99.90;;;;;;4977972;28;20105;-82
2023/05/06 05:51:00;;;;;;;30.30;16.40;;;10.60;99.90;;;;;;4993283;28;20046;-81
2023/05/06 05:53:26;;;;;;;38.95;17.30;;;10.10;99.90;;;;;;4975828;28;20058;-82
2023/05/06 05:55:51;;;;;;;33.08;17.02;;;11.40;99.90;;;;;;4976277;28;20050;-82
2023/05/06 05:58:17;;;;;;;32.60;16.67;;;10.20;99.90;;;;;;4992675;28;20478;-82
2023/05/06 06:00:43;;;;;;;35.63;18.70;;;10.30;99.90;;;;;;4976406;28;20118;-82
2023/05/06 06:03:09;;;;;;;31.35;16.80;;;10.40;99.90;;;;;;4993577;28;20074;-82
2023/05/06 06:05:35;;;;;;;29.17;15.95;;;11.20;99.90;;;;;;4975541;28;20093;-82
2023/05/06 06:08:01;;;;;;;28.58;16.67;;;10.50;99.90;;;;;;4975760;28;20398;-79
2023/05/06 06:10:27;;;;;;;30.33;16.52;;;10.50;99.90;;;;;;4974667;28;20050;-82
2023/05/06 06:12:52;;;;;;;32.33;17.00;;;10.70;99.90;;;;;;4975495;28;20371;-80
2023/05/06 06:15:18;;;;;;;30.52;16.45;;;10.70;99.90;;;;;;4975202;28;20058;-80
2023/05/06 06:17:44;;;;;;;28.83;16.63;;;10.90;99.90;;;;;;4975172;28;20049;-79
2023/05/06 06:20:10;;;;;;;27.33;16.52;;;11.10;99.90;;;;;;4975267;28;20129;-80
2023/05/06 06:22:36;;;;;;;33.30;17.20;;;11.30;99.90;;;;;;4975869;28;20049;-80
2023/05/06 06:25:02;;;;;;;31.92;16.70;;;11.40;99.90;;;;;;4992615;28;20121;-80
2023/05/06 06:27:27;;;;;;;30.88;17.13;;;11.60;99.90;;;;;;4975174;28;20035;-79
2023/05/06 06:29:53;;;;;;;32.90;18.42;;;12.60;99.90;;;;;;4975790;28;20386;-80
2023/05/06 06:32:18;;;;;;;35.08;18.05;;;12.60;99.90;;;;;;4974428;28;20152;-80
2023/05/06 06:34:44;;;;;;;34.35;18.83;;;11.80;99.90;;;;;;4993056;28;20042;-81
2023/05/06 06:37:10;;;;;;;36.78;20.10;;;11.90;99.90;;;;;;4992628;28;20474;-80
2023/05/06 06:39:36;;;;;;;36.70;19.35;;;12.00;99.90;;;;;;4975136;28;20054;-81
2023/05/06 06:42:05;;;;;;;37.35;20.20;;;12.10;99.90;;;;;;4975482;28;20057;-80
2023/05/06 06:44:32;;;;;;;36.33;20.30;;;12.30;99.90;;;;;;4975065;28;20462;-80
2023/05/06 06:46:58;;;;;;;33.85;19.85;;;12.40;99.90;;;;;;4974878;28;20486;-80
2023/05/06 06:49:25;;;;;;;34.33;18.88;;;12.50;99.90;;;;;;4992951;28;20046;-80
2023/05/06 06:51:51;;;;;;;40.97;21.13;;;12.80;99.90;;;;;;4975200;28;20133;-80
2023/05/06 06:54:17;;;;;;;37.80;20.40;;;12.90;99.90;;;;;;4974308;28;20125;-81
2023/05/06 06:56:42;;;;;;;34.10;18.23;;;13.20;99.90;;;;;;4992997;28;20050;-80
2023/05/06 06:59:08;;;;;;;32.90;17.73;;;13.30;99.90;;;;;;4992434;28;20089;-80
2023/05/06 07:01:34;;;;;;;32.45;17.27;;;13.40;99.90;;;;;;4974602;28;20042;-80
2023/05/06 07:03:59;;;;;;;31.58;17.92;;;14.40;99.90;;;;;;4975222;28;20084;-80
2023/05/06 07:06:25;;;;;;;31.45;17.40;;;13.90;99.90;;;;;;4975127;28;20590;-80
2023/05/06 07:08:50;;;;;;;28.42;15.20;;;13.90;99.90;;;;;;4977844;28;20048;-80
2023/05/06 07:11:16;;;;;;;25.30;13.82;;;14.30;99.90;;;;;;4975489;28;20058;-80
2023/05/06 07:13:44;;;;;;;22.38;12.10;;;15.20;99.90;;;;;;4973788;28;20061;-80
2023/05/06 07:16:10;;;;;;;22.70;12.15;;;14.90;99.90;;;;;;4993612;28;20042;-80
2023/05/06 07:18:35;;;;;;;23.83;13.20;;;14.40;99.90;;;;;;4974794;28;20058;-80
2023/05/06 07:21:01;;;;;;;25.38;14.48;;;14.60;99.90;;;;;;4975468;28;20045;-80
2023/05/06 07:23:27;;;;;;;23.27;13.60;;;15.40;99.90;;;;;;4994418;28;20046;-80
2023/05/06 07:26:08;;;;;;;25.70;15.57;;;15.00;99.90;;;;;;4996252;28;20069;-81
2023/05/06 07:28:45;;;;;;;23.40;14.55;;;15.70;99.90;;;;;;4990897;28;20053;-81
2023/05/06 07:31:20;;;;;;;18.15;10.65;;;15.50;99.90;;;;;;4995771;28;20038;-81
2023/05/06 07:33:58;;;;;;;16.58;9.40;;;15.70;99.90;;;;;;4978683;28;20078;-81
2023/05/06 07:36:34;;;;;;;12.90;6.95;;;16.70;99.90;;;;;;4977489;28;20092;-81
2023/05/06 07:39:15;;;;;;;15.77;8.57;;;16.10;99.90;;;;;;4978399;28;20046;-81
2023/05/06 07:41:57;;;;;;;18.75;11.70;;;16.20;99.90;;;;;;4995818;28;20121;-80
2023/05/06 07:44:23;;;;;;;21.98;13.98;;;17.30;99.90;;;;;;4978104;28;20041;-81
2023/05/06 07:50:34;;;;;;;17.90;10.57;;;16.20;99.90;;;;;;5356377;23;20116;-81
2023/05/06 07:53:21;;;;;;;20.02;11.30;;;16.20;99.90;;;;;;4978433;28;20050;-81
2023/05/06 07:55:55;;;;;;;18.25;11.10;;;16.30;99.90;;;;;;4977626;28;20053;-81
2023/05/06 07:58:24;;;;;;;19.33;11.32;;;16.50;99.90;;;;;;4995336;28;20034;-81
2023/05/06 08:00:59;;;;;;;20.25;12.15;;;17.30;99.90;;;;;;4978186;28;20521;-81
2023/05/06 08:03:46;;;;;;;22.45;13.32;;;16.20;99.90;;;;;;4994224;28;20048;-81
2023/05/06 08:06:31;;;;;;;23.35;14.25;;;16.20;99.90;;;;;;5014365;23;20147;-82
2023/05/06 08:08:58;;;;;;;23.05;14.30;;;17.40;99.90;;;;;;4977625;28;20058;-80
2023/05/06 08:11:32;;;;;;;24.05;15.38;;;17.40;99.90;;;;;;4976524;28;20569;-81
2023/05/06 08:14:02;;;;;;;26.88;16.92;;;16.70;99.90;;;;;;4995240;28;20497;-80
2023/05/06 08:16:34;;;;;;;28.13;17.70;;;17.20;99.90;;;;;;4977595;28;20414;-80
2023/05/06 08:19:15;;;;;;;25.77;16.73;;;16.90;99.90;;;;;;4976918;28;20050;-81
2023/05/06 08:21:44;;;;;;;26.45;17.05;;;17.00;99.90;;;;;;4978155;28;20153;-81
2023/05/06 08:24:22;;;;;;;28.75;18.02;;;17.10;99.90;;;;;;4976521;28;20137;-81
2023/05/06 08:26:51;;;;;;;26.23;17.67;;;17.20;99.90;;;;;;4994544;28;20049;-81
2023/05/06 08:29:32;;;;;;;30.60;18.45;;;17.40;99.90;;;;;;5008896;23;20077;-81
2023/05/06 08:32:24;;;;;;;;;;;18.50;99.90;;;;;;4993569;28;20446;-81
2023/05/06 08:34:55;;;;;;;27.85;18.20;;;17.40;99.90;;;;;;5012061;28;19928;-81
2023/05/06 08:37:21;;;;;;;31.23;18.17;;;17.40;99.90;;;;;;4997379;28;20077;-82
2023/05/06 08:39:56;;;;;;;32.00;19.85;;;17.20;99.90;;;;;;5001549;28;20038;-81
2023/05/06 08:42:42;;;;;;;29.17;19.10;;;18.50;99.90;;;;;;4983573;28;20069;-81
2023/05/06 08:45:23;;;;;;;29.92;18.60;;;17.50;99.90;;;;;;5006177;28;20044;-81
2023/05/06 08:47:52;;;;;;;29.98;17.38;;;18.80;99.90;;;;;;5000665;28;20045;-81
2023/05/06 08:50:24;;;;;;;28.13;16.95;;;18.00;99.90;;;;;;5004049;28;20042;-82
2023/05/06 08:52:50;;;;;;;27.00;16.23;;;17.80;99.90;;;;;;4980205;28;20037;-80
2023/05/06 08:55:30;;;;;;;21.60;13.27;;;17.80;99.90;;;;;;5004861;28;20046;-81
2023/05/06 08:58:15;;;;;;;21.50;13.20;;;18.00;99.90;;;;;;4977818;28;20133;-81
2023/05/06 09:00:45;;;;;;;23.17;14.30;;;19.00;99.90;;;;;;4976256;28;20371;-81
2023/05/06 09:03:32;;;;;;;24.42;14.88;;;18.10;99.90;;;;;;4979071;28;20059;-82
2023/05/06 09:06:10;;;;;;;21.98;13.60;;;18.00;99.90;;;;;;5004712;28;20034;-81
2023/05/06 09:08:42;;;;;;;24.48;13.82;;;18.10;99.90;;;;;;4986918;28;20394;-81
2023/05/06 09:11:41;;;;;;;24.30;14.68;;;18.30;99.90;;;;;;4995478;28;20053;-81
2023/05/06 09:14:22;;;;;;;21.45;12.95;;;18.40;99.90;;;;;;5012777;28;20050;-81
2023/05/06 09:17:32;;;;;;;20.35;10.65;;;18.50;99.90;;;;;;4980894;28;20104;-81
2023/05/06 09:20:11;;;;;;;18.45;11.57;;;18.60;99.90;;;;;;4996321;28;20054;-81
2023/05/06 09:22:50;;;;;;;;;;;;;;;;;;;;;
2023/05/06 09:39:39;;;;;;;15.07;8.93;;;18.90;99.90;;;;;;4943760;29;20039;-82
2023/05/06 09:42:16;;;;;;;15.73;9.60;;;18.90;99.90;;;;;;4940499;28;20062;-81
2023/05/06 09:48:05;;;;;;;17.13;9.63;;;18.70;99.90;;;;;;4972171;28;20503;-82
2023/05/06 09:53:45;;;;;;;12.18;6.13;;;20.20;99.90;;;;;;4935817;29;20078;-81
2023/05/06 09:56:26;;;;;;;11.15;4.72;;;19.30;99.90;;;;;;4935261;29;20216;-81
2023/05/06 09:59:03;;;;;;;10.32;4.90;;;19.60;99.90;;;;;;4938865;28;20102;-81
2023/05/06 10:08:36;;;;;;;21.98;7.38;;;19.50;99.90;;;;;;4922396;29;20050;-82
2023/05/06 10:11:58;;;;;;;11.15;5.28;;;20.20;99.90;;;;;;4933313;29;20087;-81
2023/05/06 10:15:06;;;;;;;13.13;5.07;;;20.40;99.90;;;;;;4879332;29;20139;-81
2023/05/06 10:18:06;;;;;;;;;;;;;;;;;;;;;
2023/05/06 10:36:06;;;;;;;12.98;7.03;;;20.70;99.90;;;;;;5181702;23;20052;31
2023/05/06 10:38:59;;;;;;;12.88;7.35;;;20.90;99.90;;;;;;4952511;28;20047;-83
2023/05/06 10:41:54;;;;;;;12.30;6.97;;;21.10;99.90;;;;;;4936735;29;20102;-83
2023/05/06 10:53:00;;;;;;;;;;;;;;;;;;;;;
2023/05/06 11:04:00;;;;;;;;;;;;;;;;;;;;;
2023/05/06 11:07:25;;;;;;;64.03;15.50;;;19.50;99.90;;;;;;4899239;29;20487;-86
2023/05/06 11:10:10;;;;;;;34.55;11.13;;;19.50;99.90;;;;;;4912050;29;20100;-81
2023/05/06 11:13:26;;;;;;;16.00;8.43;;;19.60;99.90;;;;;;4929739;29;20043;-85
2023/05/06 11:16:01;;;;;;;50.55;13.75;;;19.50;99.90;;;;;;4939158;29;20063;-82
2023/05/06 11:18:27;;;;;;;28.23;9.65;;;20.60;99.90;;;;;;4957396;28;20043;-85
2023/05/06 11:21:05;;;;;;;14.15;8.25;;;20.10;99.90;;;;;;4938880;29;20499;-84
2023/05/06 11:23:45;;;;;;;15.82;8.52;;;20.60;99.90;;;;;;4957938;29;20047;-84
2023/05/06 11:26:11;;;;;;;14.88;8.88;;;21.40;99.90;;;;;;4940836;29;20044;-84
2023/05/06 11:28:45;;;;;;;19.38;10.32;;;21.80;99.90;;;;;;4939316;29;20047;-82
2023/05/06 11:31:12;;;;;;;15.70;10.00;;;21.90;99.90;;;;;;4954609;29;20495;-81
2023/05/06 11:33:47;;;;;;;14.68;9.55;;;21.90;99.90;;;;;;4955531;29;20075;-84
2023/05/06 11:36:15;;;;;;;14.45;9.23;;;22.20;99.90;;;;;;4924173;29;20113;-83
2023/05/06 11:38:51;;;;;;;16.92;9.68;;;22.00;99.90;;;;;;4959031;28;20137;-83
2023/05/06 11:41:17;;;;;;;27.45;11.07;;;21.80;99.90;;;;;;4973166;28;20550;-84
2023/05/06 11:43:49;;;;;;;16.90;9.68;;;21.60;99.90;;;;;;4957771;28;20047;-83
2023/05/06 11:46:18;;;;;;;15.82;10.02;;;21.60;99.90;;;;;;4942167;29;20057;-82
2023/05/06 11:48:44;;;;;;;16.17;9.40;;;21.30;99.90;;;;;;4940730;28;20554;-81
2023/05/06 11:51:10;;;;;;;15.15;10.00;;;21.30;99.90;;;;;;4956835;28;20118;-81
2023/05/06 11:53:36;;;;;;;14.82;9.77;;;21.10;99.90;;;;;;4939759;29;20047;-80
2023/05/06 11:56:04;;;;;;;15.55;9.98;;;20.90;99.90;;;;;;4956461;28;20391;-84
2023/05/06 11:58:30;;;;;;;17.30;9.75;;;20.90;99.90;;;;;;4939008;29;20082;-83
2023/05/06 12:00:57;;;;;;;36.33;12.80;;;20.90;99.90;;;;;;4939306;29;20082;-83
2023/05/06 12:03:24;;;;;;;15.75;9.10;;;21.00;99.90;;;;;;4938039;28;20047;-84
2023/05/06 12:05:51;;;;;;;31.00;12.10;;;21.10;99.90;;;;;;4956660;28;20049;-83
2023/05/06 12:08:22;;;;;;;45.90;14.77;;;21.10;99.90;;;;;;4956024;29;20155;-84
2023/05/06 12:10:49;;;;;;;60.25;17.75;;;21.20;99.90;;;;;;4941564;29;20043;-84
2023/05/06 12:13:26;;;;;;;24.02;10.70;;;21.20;99.90;;;;;;4938367;28;20058;-84
2023/05/06 12:16:34;;;;;;;18.75;11.13;;;21.10;99.90;;;;;;4939342;29;20439;-86
2023/05/06 12:19:14;;;;;;;18.13;10.50;;;20.90;99.90;;;;;;4956284;28;20051;-85
2023/05/06 12:21:49;;;;;;;16.98;10.93;;;20.70;99.90;;;;;;4957914;28;20098;-87
2023/05/06 12:28:25;;;;;;;26.40;11.68;;;20.90;99.90;;;;;;4956386;29;20046;-86
2023/05/06 12:30:51;;;;;;;30.55;13.15;;;21.40;99.90;;;;;;4936945;29;20047;-79
2023/05/06 12:33:20;;;;;;;17.98;10.35;;;21.70;99.90;;;;;;4955809;28;20184;-86
2023/05/06 12:36:10;;;;;;;16.15;10.13;;;21.50;99.90;;;;;;4956387;28;20043;-87
2023/05/06 12:38:35;;;;;;;13.88;9.40;;;21.50;99.90;;;;;;4937636;29;20094;-84
2023/05/06 12:41:03;;;;;;;14.57;10.00;;;21.70;99.90;;;;;;4938514;28;20062;-83
2023/05/06 12:43:30;;;;;;;14.13;9.45;;;21.40;99.90;;;;;;4938239;28;20495;-83
2023/05/06 12:46:06;;;;;;;15.25;9.93;;;21.10;99.90;;;;;;4937684;29;20057;-83
2023/05/06 12:48:32;;;;;;;17.20;12.05;;;20.90;99.90;;;;;;4955381;28;20059;-83
2023/05/06 12:50:58;;;;;;;16.48;12.00;;;20.60;99.90;;;;;;4955635;28;20085;-83
2023/05/06 12:53:36;;;;;;;28.45;12.43;;;20.40;99.90;;;;;;4954206;28;20058;-83
2023/05/06 12:56:02;;;;;;;26.77;12.35;;;20.30;99.90;;;;;;4955465;28;20079;-83
2023/05/06 12:58:27;;;;;;;28.48;12.20;;;20.30;99.90;;;;;;4941989;29;20070;-83
2023/05/06 13:00:53;;;;;;;24.42;10.50;;;20.30;99.90;;;;;;4948538;28;20505;-82
2023/05/06 13:07:03;;;;;;;15.70;10.45;;;20.00;99.90;;;;;;4975272;28;20105;-82
2023/05/06 13:09:34;;;;;;;16.20;10.70;;;20.50;99.90;;;;;;5053327;23;20055;-83
2023/05/06 13:12:01;;;;;;;14.32;10.13;;;20.50;99.90;;;;;;4936721;29;20403;-81
2023/05/06 13:14:30;;;;;;;13.88;9.15;;;20.50;99.90;;;;;;4933660;29;20047;-82
2023/05/06 13:16:59;;;;;;;15.60;9.23;;;20.50;99.90;;;;;;4939386;29;20043;-82
2023/05/06 13:19:24;;;;;;;15.48;9.18;;;20.70;99.90;;;;;;4955598;23;20145;-82
2023/05/06 13:21:50;;;;;;;14.68;9.57;;;20.90;99.90;;;;;;4974438;28;20659;-83
2023/05/06 13:24:16;;;;;;;14.25;9.25;;;21.30;99.90;;;;;;4993249;28;20104;-82
2023/05/06 13:26:59;;;;;;;14.32;7.93;;;21.20;99.90;;;;;;4992654;28;20136;-82
2023/05/06 13:29:26;;;;;;;12.60;7.72;;;21.40;99.90;;;;;;4975183;28;20828;-82
2023/05/06 13:31:51;;;;;;;13.13;7.78;;;21.90;99.90;;;;;;4976434;28;20042;-82
2023/05/06 13:34:26;;;;;;;12.73;8.10;;;21.20;99.90;;;;;;4975377;28;20042;-83
2023/05/06 13:36:53;;;;;;;13.32;8.32;;;21.10;99.90;;;;;;4997396;23;20536;-82
2023/05/06 13:39:20;;;;;;;12.75;8.27;;;20.80;99.90;;;;;;4983574;28;20073;-80
2023/05/06 13:41:48;;;;;;;16.42;10.40;;;20.80;99.90;;;;;;4973091;28;20038;-81
2023/05/06 13:44:26;;;;;;;15.38;10.82;;;21.00;99.90;;;;;;4993369;28;20068;-81
2023/05/06 13:46:58;;;;;;;15.13;10.80;;;21.60;99.90;;;;;;4976393;28;20042;-81
2023/05/06 13:49:31;;;;;;;16.92;11.07;;;22.00;99.90;;;;;;5088931;27;20401;-82
2023/05/06 13:51:57;;;;;;;16.10;11.25;;;22.20;99.90;;;;;;5071314;28;20499;-82
2023/05/06 13:54:28;;;;;;;18.15;11.10;;;21.80;99.90;;;;;;5083605;28;20142;-82
2023/05/06 13:57:13;;;;;;;18.30;11.73;;;22.30;99.90;;;;;;5073484;28;20099;-82
2023/05/06 13:59:57;;;;;;;16.75;11.50;;;22.40;99.90;;;;;;5068225;28;20059;-82
2023/05/06 14:02:41;;;;;;;18.80;12.65;;;22.70;99.90;;;;;;5068166;28;20044;-82
2023/05/06 14:05:16;;;;;;;16.92;11.70;;;23.00;99.90;;;;;;5068123;28;20470;-84
2023/05/06 14:07:44;;;;;;;17.10;11.00;;;23.30;99.90;;;;;;5067974;28;20458;-82